Ahmeek, Michigan
Current Conditions -  °F | °C
As of 12:53 AM on Saturday 29 Nov 2014 (Local Time) from KCMX Reporting Station
Overcast Overcast  
Wind Chill: -8°   Ceiling: 3900
Heat Index: -8°   Visibility: 10mi
Dew Point: -11°   Wind: 0mph
Humidity: 78%   Direction: NA
Pressure: 29.78"   Gusts: NA
Location:  47.3°N, 88.4°W
Report Text: KCMX 290553Z AUTO 00000KT 10SM OVC039 M08/M11 A2978 RMK AO2 SLP106 60000 T10781111 11067 21078 58020
Loading
Personal Weather Stations






























Interactive Weather Map New forecast layout! Learn more

10-Day Weather Forecast

Advertisements
Track Severe Weather on mobile